sensor_id;sensor_type;location;lat;lon;timestamp;temperature;humidity
5023;DHT22;2530;47.990;7.866;2024-03-06T00:01:33;6.70;99.90
5023;DHT22;2530;47.990;7.866;2024-03-06T00:03:59;6.70;99.90
5023;DHT22;2530;47.990;7.866;2024-03-06T00:06:25;6.80;99.90
5023;DHT22;2530;47.990;7.866;2024-03-06T00:08:50;6.70;99.90
5023;DHT22;2530;47.990;7.866;2024-03-06T00:11:16;6.40;99.90
5023;DHT22;2530;47.990;7.866;2024-03-06T00:13:42;6.80;99.90
5023;DHT22;2530;47.990;7.866;2024-03-06T00:16:08;6.70;99.90
5023;DHT22;2530;47.990;7.866;2024-03-06T00:18:34;6.70;99.90
5023;DHT22;2530;47.990;7.866;2024-03-06T00:21:00;6.80;99.90
5023;DHT22;2530;47.990;7.866;2024-03-06T00:23:25;6.70;99.90
5023;DHT22;2530;47.990;7.866;2024-03-06T00:25:52;6.70;99.90
5023;DHT22;2530;47.990;7.866;2024-03-06T00:28:17;6.80;99.90
5023;DHT22;2530;47.990;7.866;2024-03-06T00:30:43;6.70;99.90
5023;DHT22;2530;47.990;7.866;2024-03-06T00:33:08;6.70;99.90
5023;DHT22;2530;47.990;7.866;2024-03-06T00:35:34;6.70;99.90
5023;DHT22;2530;47.990;7.866;2024-03-06T00:37:59;6.70;99.90
5023;DHT22;2530;47.990;7.866;2024-03-06T00:40:28;6.70;99.90
5023;DHT22;2530;47.990;7.866;2024-03-06T00:42:56;6.60;99.90
5023;DHT22;2530;47.990;7.866;2024-03-06T00:45:22;6.70;99.90
5023;DHT22;2530;47.990;7.866;2024-03-06T00:47:47;6.70;99.90
5023;DHT22;2530;47.990;7.866;2024-03-06T00:50:13;6.70;99.90
5023;DHT22;2530;47.990;7.866;2024-03-06T00:52:39;6.70;99.90
5023;DHT22;2530;47.990;7.866;2024-03-06T00:55:04;6.70;99.90
5023;DHT22;2530;47.990;7.866;2024-03-06T00:57:30;6.70;99.90
5023;DHT22;2530;47.990;7.866;2024-03-06T00:59:56;6.60;99.90
5023;DHT22;2530;47.990;7.866;2024-03-06T01:02:21;6.60;99.90
5023;DHT22;2530;47.990;7.866;2024-03-06T01:04:47;6.60;99.90
5023;DHT22;2530;47.990;7.866;2024-03-06T01:07:12;6.70;99.90
5023;DHT22;2530;47.990;7.866;2024-03-06T01:09:38;6.60;99.90
5023;DHT22;2530;47.990;7.866;2024-03-06T01:12:04;6.50;99.90
5023;DHT22;2530;47.990;7.866;2024-03-06T01:14:30;6.60;99.90
5023;DHT22;2530;47.990;7.866;2024-03-06T01:16:56;6.60;99.90
5023;DHT22;2530;47.990;7.866;2024-03-06T01:19:23;6.60;99.90
5023;DHT22;2530;47.990;7.866;2024-03-06T01:21:48;6.50;99.90
5023;DHT22;2530;47.990;7.866;2024-03-06T01:24:14;6.50;99.90
5023;DHT22;2530;47.990;7.866;2024-03-06T01:26:40;6.60;99.90
5023;DHT22;2530;47.990;7.866;2024-03-06T01:29:06;6.60;99.90
5023;DHT22;2530;47.990;7.866;2024-03-06T01:31:31;6.70;99.90
5023;DHT22;2530;47.990;7.866;2024-03-06T01:33:57;6.60;99.90
5023;DHT22;2530;47.990;7.866;2024-03-06T01:36:23;6.60;99.90
5023;DHT22;2530;47.990;7.866;2024-03-06T01:38:48;6.60;99.90
5023;DHT22;2530;47.990;7.866;2024-03-06T01:41:15;6.50;99.90
5023;DHT22;2530;47.990;7.866;2024-03-06T01:43:40;6.60;99.90
5023;DHT22;2530;47.990;7.866;2024-03-06T01:46:06;6.60;99.90
5023;DHT22;2530;47.990;7.866;2024-03-06T01:48:32;6.60;99.90
5023;DHT22;2530;47.990;7.866;2024-03-06T01:51:01;6.40;99.90
5023;DHT22;2530;47.990;7.866;2024-03-06T01:53:29;6.40;99.90
5023;DHT22;2530;47.990;7.866;2024-03-06T01:55:56;6.50;99.90
5023;DHT22;2530;47.990;7.866;2024-03-06T01:58:23;6.50;99.90
5023;DHT22;2530;47.990;7.866;2024-03-06T02:00:50;6.50;99.90
5023;DHT22;2530;47.990;7.866;2024-03-06T02:03:16;6.50;99.90
5023;DHT22;2530;47.990;7.866;2024-03-06T02:05:42;6.40;99.90
5023;DHT22;2530;47.990;7.866;2024-03-06T02:08:08;6.50;99.90
5023;DHT22;2530;47.990;7.866;2024-03-06T02:10:34;6.50;99.90
5023;DHT22;2530;47.990;7.866;2024-03-06T02:13:00;6.60;99.90
5023;DHT22;2530;47.990;7.866;2024-03-06T02:15:25;6.60;99.90
5023;DHT22;2530;47.990;7.866;2024-03-06T02:17:51;6.70;99.90
5023;DHT22;2530;47.990;7.866;2024-03-06T02:20:23;6.60;99.90
5023;DHT22;2530;47.990;7.866;2024-03-06T02:22:48;6.60;99.90
5023;DHT22;2530;47.990;7.866;2024-03-06T02:25:14;6.50;99.90
5023;DHT22;2530;47.990;7.866;2024-03-06T02:27:40;6.40;99.90
5023;DHT22;2530;47.990;7.866;2024-03-06T02:30:06;6.50;99.90
5023;DHT22;2530;47.990;7.866;2024-03-06T02:32:32;6.40;99.90
5023;DHT22;2530;47.990;7.866;2024-03-06T02:34:57;6.50;99.90
5023;DHT22;2530;47.990;7.866;2024-03-06T02:37:23;6.40;99.90
5023;DHT22;2530;47.990;7.866;2024-03-06T02:39:50;6.60;99.90
5023;DHT22;2530;47.990;7.866;2024-03-06T02:42:15;6.60;99.90
5023;DHT22;2530;47.990;7.866;2024-03-06T02:44:42;6.60;99.90
5023;DHT22;2530;47.990;7.866;2024-03-06T02:47:08;6.60;99.90
5023;DHT22;2530;47.990;7.866;2024-03-06T02:49:33;6.70;99.90
5023;DHT22;2530;47.990;7.866;2024-03-06T02:51:59;6.80;99.90
5023;DHT22;2530;47.990;7.866;2024-03-06T02:54:26;6.70;99.90
5023;DHT22;2530;47.990;7.866;2024-03-06T02:56:52;6.50;99.90
5023;DHT22;2530;47.990;7.866;2024-03-06T02:59:17;6.50;99.90
5023;DHT22;2530;47.990;7.866;2024-03-06T03:01:44;6.50;99.90
5023;DHT22;2530;47.990;7.866;2024-03-06T03:04:10;6.60;99.90
5023;DHT22;2530;47.990;7.866;2024-03-06T03:06:35;6.40;99.90
5023;DHT22;2530;47.990;7.866;2024-03-06T03:09:01;6.50;99.90
5023;DHT22;2530;47.990;7.866;2024-03-06T03:11:29;6.40;99.90
5023;DHT22;2530;47.990;7.866;2024-03-06T03:13:55;6.50;99.90
5023;DHT22;2530;47.990;7.866;2024-03-06T03:16:21;6.50;99.90
5023;DHT22;2530;47.990;7.866;2024-03-06T03:18:47;6.50;99.90
5023;DHT22;2530;47.990;7.866;2024-03-06T03:21:13;6.50;99.90
5023;DHT22;2530;47.990;7.866;2024-03-06T03:23:39;6.30;99.90
5023;DHT22;2530;47.990;7.866;2024-03-06T03:26:06;6.50;99.90
5023;DHT22;2530;47.990;7.866;2024-03-06T03:28:31;6.50;99.90
5023;DHT22;2530;47.990;7.866;2024-03-06T03:30:58;6.50;99.90
5023;DHT22;2530;47.990;7.866;2024-03-06T03:33:24;6.60;99.90
5023;DHT22;2530;47.990;7.866;2024-03-06T03:35:49;6.60;99.90
5023;DHT22;2530;47.990;7.866;2024-03-06T03:38:15;6.60;99.90
5023;DHT22;2530;47.990;7.866;2024-03-06T03:40:40;6.60;99.90
5023;DHT22;2530;47.990;7.866;2024-03-06T03:43:06;6.50;99.90
5023;DHT22;2530;47.990;7.866;2024-03-06T03:45:32;6.60;99.90
5023;DHT22;2530;47.990;7.866;2024-03-06T03:48:03;6.50;99.90
5023;DHT22;2530;47.990;7.866;2024-03-06T03:50:29;6.50;99.90
5023;DHT22;2530;47.990;7.866;2024-03-06T03:52:55;6.30;99.90
5023;DHT22;2530;47.990;7.866;2024-03-06T03:55:23;6.30;99.90
5023;DHT22;2530;47.990;7.866;2024-03-06T03:57:49;6.30;99.90
5023;DHT22;2530;47.990;7.866;2024-03-06T04:00:15;6.40;99.90
5023;DHT22;2530;47.990;7.866;2024-03-06T04:02:42;6.40;99.90
5023;DHT22;2530;47.990;7.866;2024-03-06T04:05:07;6.40;99.90
5023;DHT22;2530;47.990;7.866;2024-03-06T04:07:33;6.40;99.90
5023;DHT22;2530;47.990;7.866;2024-03-06T04:09:58;6.40;99.90
5023;DHT22;2530;47.990;7.866;2024-03-06T04:12:24;6.40;99.90
5023;DHT22;2530;47.990;7.866;2024-03-06T04:14:50;6.30;99.90
5023;DHT22;2530;47.990;7.866;2024-03-06T04:17:15;6.50;99.90
5023;DHT22;2530;47.990;7.866;2024-03-06T04:19:41;6.40;99.90
5023;DHT22;2530;47.990;7.866;2024-03-06T04:22:06;6.40;99.90
5023;DHT22;2530;47.990;7.866;2024-03-06T04:24:32;6.30;99.90
5023;DHT22;2530;47.990;7.866;2024-03-06T04:26:57;6.30;99.90
5023;DHT22;2530;47.990;7.866;2024-03-06T04:29:23;6.20;99.90
5023;DHT22;2530;47.990;7.866;2024-03-06T04:31:48;6.10;99.90
5023;DHT22;2530;47.990;7.866;2024-03-06T04:34:14;6.10;99.90
5023;DHT22;2530;47.990;7.866;2024-03-06T04:36:39;6.20;99.90
5023;DHT22;2530;47.990;7.866;2024-03-06T04:39:05;6.20;99.90
5023;DHT22;2530;47.990;7.866;2024-03-06T04:41:35;6.10;99.90
5023;DHT22;2530;47.990;7.866;2024-03-06T04:44:01;6.10;99.90
5023;DHT22;2530;47.990;7.866;2024-03-06T04:46:27;6.10;99.90
5023;DHT22;2530;47.990;7.866;2024-03-06T04:48:52;6.00;99.90
5023;DHT22;2530;47.990;7.866;2024-03-06T04:51:18;6.00;99.90
5023;DHT22;2530;47.990;7.866;2024-03-06T04:53:45;6.00;99.90
5023;DHT22;2530;47.990;7.866;2024-03-06T04:56:10;6.10;99.90
5023;DHT22;2530;47.990;7.866;2024-03-06T04:58:36;6.10;99.90
5023;DHT22;2530;47.990;7.866;2024-03-06T05:01:02;6.10;99.90
5023;DHT22;2530;47.990;7.866;2024-03-06T05:03:29;6.00;99.90
5023;DHT22;2530;47.990;7.866;2024-03-06T05:05:54;6.00;99.90
5023;DHT22;2530;47.990;7.866;2024-03-06T05:08:20;5.90;99.90
5023;DHT22;2530;47.990;7.866;2024-03-06T05:10:46;5.90;99.90
5023;DHT22;2530;47.990;7.866;2024-03-06T05:13:11;5.90;99.90
5023;DHT22;2530;47.990;7.866;2024-03-06T05:15:37;5.60;99.90
5023;DHT22;2530;47.990;7.866;2024-03-06T05:18:04;5.90;99.90
5023;DHT22;2530;47.990;7.866;2024-03-06T05:20:30;5.90;99.90
5023;DHT22;2530;47.990;7.866;2024-03-06T05:22:58;5.90;99.90
5023;DHT22;2530;47.990;7.866;2024-03-06T05:25:24;5.90;99.90
5023;DHT22;2530;47.990;7.866;2024-03-06T05:27:50;5.90;99.90
5023;DHT22;2530;47.990;7.866;2024-03-06T05:30:15;5.90;99.90
5023;DHT22;2530;47.990;7.866;2024-03-06T05:32:41;5.90;99.90
5023;DHT22;2530;47.990;7.866;2024-03-06T05:35:07;5.80;99.90
5023;DHT22;2530;47.990;7.866;2024-03-06T05:37:37;5.70;99.90
5023;DHT22;2530;47.990;7.866;2024-03-06T05:40:03;5.70;99.90
5023;DHT22;2530;47.990;7.866;2024-03-06T05:42:31;5.70;99.90
5023;DHT22;2530;47.990;7.866;2024-03-06T05:44:57;5.60;99.90
5023;DHT22;2530;47.990;7.866;2024-03-06T05:47:31;5.60;99.90
5023;DHT22;2530;47.990;7.866;2024-03-06T05:49:57;5.70;99.90
5023;DHT22;2530;47.990;7.866;2024-03-06T05:52:22;5.60;99.90
5023;DHT22;2530;47.990;7.866;2024-03-06T05:54:48;5.60;99.90
5023;DHT22;2530;47.990;7.866;2024-03-06T05:57:14;5.60;99.90
5023;DHT22;2530;47.990;7.866;2024-03-06T05:59:40;5.40;99.90
5023;DHT22;2530;47.990;7.866;2024-03-06T06:02:06;5.60;99.90
5023;DHT22;2530;47.990;7.866;2024-03-06T06:04:31;5.70;99.90
5023;DHT22;2530;47.990;7.866;2024-03-06T06:06:57;5.60;99.90
5023;DHT22;2530;47.990;7.866;2024-03-06T06:09:22;5.60;99.90
5023;DHT22;2530;47.990;7.866;2024-03-06T06:11:48;5.50;99.90
5023;DHT22;2530;47.990;7.866;2024-03-06T06:14:15;5.60;99.90
5023;DHT22;2530;47.990;7.866;2024-03-06T06:16:42;5.60;99.90
5023;DHT22;2530;47.990;7.866;2024-03-06T06:19:08;5.60;99.90
5023;DHT22;2530;47.990;7.866;2024-03-06T06:21:33;5.70;99.90
5023;DHT22;2530;47.990;7.866;2024-03-06T06:24:01;5.60;99.90
5023;DHT22;2530;47.990;7.866;2024-03-06T06:26:27;5.60;99.90
5023;DHT22;2530;47.990;7.866;2024-03-06T06:28:52;5.60;99.90
5023;DHT22;2530;47.990;7.866;2024-03-06T06:31:18;5.60;99.90
5023;DHT22;2530;47.990;7.866;2024-03-06T06:33:43;5.70;99.90
5023;DHT22;2530;47.990;7.866;2024-03-06T06:36:11;5.60;99.90
5023;DHT22;2530;47.990;7.866;2024-03-06T06:38:36;5.60;99.90
5023;DHT22;2530;47.990;7.866;2024-03-06T06:41:01;5.60;99.90
5023;DHT22;2530;47.990;7.866;2024-03-06T06:43:28;5.30;99.90
5023;DHT22;2530;47.990;7.866;2024-03-06T06:45:53;5.40;99.90
5023;DHT22;2530;47.990;7.866;2024-03-06T06:48:19;5.50;99.90
5023;DHT22;2530;47.990;7.866;2024-03-06T06:50:44;5.40;99.90
5023;DHT22;2530;47.990;7.866;2024-03-06T06:53:13;5.40;99.90
5023;DHT22;2530;47.990;7.866;2024-03-06T06:55:39;5.50;99.90
5023;DHT22;2530;47.990;7.866;2024-03-06T06:58:04;5.40;99.90
5023;DHT22;2530;47.990;7.866;2024-03-06T07:00:30;5.50;99.90
5023;DHT22;2530;47.990;7.866;2024-03-06T07:02:55;5.60;99.90
5023;DHT22;2530;47.990;7.866;2024-03-06T07:05:24;5.40;99.90
5023;DHT22;2530;47.990;7.866;2024-03-06T07:07:49;5.60;99.90
5023;DHT22;2530;47.990;7.866;2024-03-06T07:10:15;5.50;99.90
5023;DHT22;2530;47.990;7.866;2024-03-06T07:12:40;5.60;99.90
5023;DHT22;2530;47.990;7.866;2024-03-06T07:15:06;5.40;99.90
5023;DHT22;2530;47.990;7.866;2024-03-06T07:17:32;5.60;99.90
5023;DHT22;2530;47.990;7.866;2024-03-06T07:19:58;5.50;99.90
5023;DHT22;2530;47.990;7.866;2024-03-06T07:22:23;5.50;99.90
5023;DHT22;2530;47.990;7.866;2024-03-06T07:24:49;5.30;99.90
5023;DHT22;2530;47.990;7.866;2024-03-06T07:27:14;5.40;99.90
5023;DHT22;2530;47.990;7.866;2024-03-06T07:29:40;5.40;99.90
5023;DHT22;2530;47.990;7.866;2024-03-06T07:32:06;5.50;99.90
5023;DHT22;2530;47.990;7.866;2024-03-06T07:34:32;5.50;99.90
5023;DHT22;2530;47.990;7.866;2024-03-06T07:36:58;5.50;99.90
5023;DHT22;2530;47.990;7.866;2024-03-06T07:39:27;5.50;99.90
5023;DHT22;2530;47.990;7.866;2024-03-06T07:41:52;5.40;99.90
5023;DHT22;2530;47.990;7.866;2024-03-06T07:44:18;5.40;99.90
5023;DHT22;2530;47.990;7.866;2024-03-06T07:46:45;5.50;99.90
5023;DHT22;2530;47.990;7.866;2024-03-06T07:49:11;5.50;99.90
5023;DHT22;2530;47.990;7.866;2024-03-06T07:51:36;5.50;99.90
5023;DHT22;2530;47.990;7.866;2024-03-06T07:54:02;5.40;99.90
5023;DHT22;2530;47.990;7.866;2024-03-06T07:56:29;5.40;99.90
5023;DHT22;2530;47.990;7.866;2024-03-06T07:58:55;5.50;99.90
5023;DHT22;2530;47.990;7.866;2024-03-06T08:01:21;5.60;99.90
5023;DHT22;2530;47.990;7.866;2024-03-06T08:03:47;5.50;99.90
5023;DHT22;2530;47.990;7.866;2024-03-06T08:06:13;5.10;99.90
5023;DHT22;2530;47.990;7.866;2024-03-06T08:08:42;5.40;99.90
5023;DHT22;2530;47.990;7.866;2024-03-06T08:11:09;5.50;99.90
5023;DHT22;2530;47.990;7.866;2024-03-06T08:13:36;5.50;99.90
5023;DHT22;2530;47.990;7.866;2024-03-06T08:16:02;5.50;99.90
5023;DHT22;2530;47.990;7.866;2024-03-06T08:18:29;5.60;99.90
5023;DHT22;2530;47.990;7.866;2024-03-06T08:20:55;6.40;99.90
5023;DHT22;2530;47.990;7.866;2024-03-06T08:23:20;5.80;99.90
5023;DHT22;2530;47.990;7.866;2024-03-06T08:25:46;5.70;99.90
5023;DHT22;2530;47.990;7.866;2024-03-06T08:28:12;5.60;99.90
5023;DHT22;2530;47.990;7.866;2024-03-06T08:30:38;5.60;99.90
5023;DHT22;2530;47.990;7.866;2024-03-06T08:33:03;5.50;99.90
5023;DHT22;2530;47.990;7.866;2024-03-06T08:35:29;5.60;99.90
5023;DHT22;2530;47.990;7.866;2024-03-06T08:37:55;5.60;99.90
5023;DHT22;2530;47.990;7.866;2024-03-06T08:40:21;5.70;99.90
5023;DHT22;2530;47.990;7.866;2024-03-06T08:42:47;5.50;99.90
5023;DHT22;2530;47.990;7.866;2024-03-06T08:45:13;5.60;99.90
5023;DHT22;2530;47.990;7.866;2024-03-06T08:47:43;5.50;99.90
5023;DHT22;2530;47.990;7.866;2024-03-06T08:50:10;5.80;99.90
5023;DHT22;2530;47.990;7.866;2024-03-06T08:52:36;5.80;99.90
5023;DHT22;2530;47.990;7.866;2024-03-06T08:55:02;5.80;99.90
5023;DHT22;2530;47.990;7.866;2024-03-06T08:57:34;5.90;99.90
5023;DHT22;2530;47.990;7.866;2024-03-06T09:00:00;5.70;99.90
5023;DHT22;2530;47.990;7.866;2024-03-06T09:02:26;5.90;99.90
5023;DHT22;2530;47.990;7.866;2024-03-06T09:04:52;6.00;99.90
5023;DHT22;2530;47.990;7.866;2024-03-06T09:07:18;6.00;99.90
5023;DHT22;2530;47.990;7.866;2024-03-06T09:09:44;6.10;99.90
5023;DHT22;2530;47.990;7.866;2024-03-06T09:12:10;6.20;99.90
5023;DHT22;2530;47.990;7.866;2024-03-06T09:14:37;6.30;99.90
5023;DHT22;2530;47.990;7.866;2024-03-06T09:17:03;6.20;99.90
5023;DHT22;2530;47.990;7.866;2024-03-06T09:19:29;6.30;99.90
5023;DHT22;2530;47.990;7.866;2024-03-06T09:21:55;6.50;99.90
5023;DHT22;2530;47.990;7.866;2024-03-06T09:24:22;6.20;99.90
5023;DHT22;2530;47.990;7.866;2024-03-06T09:26:51;6.70;99.90
5023;DHT22;2530;47.990;7.866;2024-03-06T09:29:17;6.70;99.90
5023;DHT22;2530;47.990;7.866;2024-03-06T09:31:43;6.70;99.90
5023;DHT22;2530;47.990;7.866;2024-03-06T09:34:09;6.40;99.90
5023;DHT22;2530;47.990;7.866;2024-03-06T09:36:47;6.60;99.90
5023;DHT22;2530;47.990;7.866;2024-03-06T09:39:17;6.70;99.90
5023;DHT22;2530;47.990;7.866;2024-03-06T09:41:49;6.70;99.90
5023;DHT22;2530;47.990;7.866;2024-03-06T09:44:16;6.90;99.90
5023;DHT22;2530;47.990;7.866;2024-03-06T09:46:46;7.00;99.90
5023;DHT22;2530;47.990;7.866;2024-03-06T09:49:13;6.70;99.90
5023;DHT22;2530;47.990;7.866;2024-03-06T09:51:48;6.50;99.90
5023;DHT22;2530;47.990;7.866;2024-03-06T09:54:19;6.60;99.90
5023;DHT22;2530;47.990;7.866;2024-03-06T09:56:48;7.00;99.90
5023;DHT22;2530;47.990;7.866;2024-03-06T09:59:14;6.90;99.90
5023;DHT22;2530;47.990;7.866;2024-03-06T10:01:49;6.80;99.90
5023;DHT22;2530;47.990;7.866;2024-03-06T10:04:22;6.70;99.90
5023;DHT22;2530;47.990;7.866;2024-03-06T10:06:48;6.80;99.90
5023;DHT22;2530;47.990;7.866;2024-03-06T10:09:17;6.80;99.90
5023;DHT22;2530;47.990;7.866;2024-03-06T10:11:43;7.00;99.90
5023;DHT22;2530;47.990;7.866;2024-03-06T10:14:09;7.00;99.90
5023;DHT22;2530;47.990;7.866;2024-03-06T10:16:36;7.00;99.90
5023;DHT22;2530;47.990;7.866;2024-03-06T10:19:18;7.30;99.90
5023;DHT22;2530;47.990;7.866;2024-03-06T10:21:46;7.40;99.90
5023;DHT22;2530;47.990;7.866;2024-03-06T10:24:11;7.50;99.90
5023;DHT22;2530;47.990;7.866;2024-03-06T10:26:38;7.60;99.90
5023;DHT22;2530;47.990;7.866;2024-03-06T10:29:03;7.60;99.90
5023;DHT22;2530;47.990;7.866;2024-03-06T10:31:29;7.90;99.90
5023;DHT22;2530;47.990;7.866;2024-03-06T10:33:54;8.00;99.90
5023;DHT22;2530;47.990;7.866;2024-03-06T10:36:20;7.90;99.90
5023;DHT22;2530;47.990;7.866;2024-03-06T10:38:47;8.10;99.90
5023;DHT22;2530;47.990;7.866;2024-03-06T10:41:14;8.20;99.90
5023;DHT22;2530;47.990;7.866;2024-03-06T10:43:43;8.10;99.90
5023;DHT22;2530;47.990;7.866;2024-03-06T10:46:11;8.20;99.90
5023;DHT22;2530;47.990;7.866;2024-03-06T10:48:37;7.90;99.90
5023;DHT22;2530;47.990;7.866;2024-03-06T10:51:05;7.90;99.90
5023;DHT22;2530;47.990;7.866;2024-03-06T10:53:33;8.20;99.90
5023;DHT22;2530;47.990;7.866;2024-03-06T10:56:02;8.20;99.90
5023;DHT22;2530;47.990;7.866;2024-03-06T10:58:29;8.20;99.90
5023;DHT22;2530;47.990;7.866;2024-03-06T11:00:55;8.40;99.90
5023;DHT22;2530;47.990;7.866;2024-03-06T11:03:23;8.60;99.90
5023;DHT22;2530;47.990;7.866;2024-03-06T11:05:51;8.50;99.90
5023;DHT22;2530;47.990;7.866;2024-03-06T11:08:17;8.60;99.90
5023;DHT22;2530;47.990;7.866;2024-03-06T11:10:43;8.70;99.90
5023;DHT22;2530;47.990;7.866;2024-03-06T11:15:47;8.30;99.90
5023;DHT22;2530;47.990;7.866;2024-03-06T11:23:29;8.30;99.90
5023;DHT22;2530;47.990;7.866;2024-03-06T11:25:55;8.20;99.90
5023;DHT22;2530;47.990;7.866;2024-03-06T11:28:28;8.50;99.90
5023;DHT22;2530;47.990;7.866;2024-03-06T11:31:12;8.50;99.90
5023;DHT22;2530;47.990;7.866;2024-03-06T11:33:45;8.40;99.90
5023;DHT22;2530;47.990;7.866;2024-03-06T11:36:25;8.30;99.90
5023;DHT22;2530;47.990;7.866;2024-03-06T11:38:51;8.70;99.90
5023;DHT22;2530;47.990;7.866;2024-03-06T11:41:22;8.60;99.90
5023;DHT22;2530;47.990;7.866;2024-03-06T11:43:49;8.60;99.90
5023;DHT22;2530;47.990;7.866;2024-03-06T11:46:16;8.60;99.90
5023;DHT22;2530;47.990;7.866;2024-03-06T11:48:43;8.60;99.90
5023;DHT22;2530;47.990;7.866;2024-03-06T11:51:09;8.60;99.90
5023;DHT22;2530;47.990;7.866;2024-03-06T11:53:34;8.90;99.90
5023;DHT22;2530;47.990;7.866;2024-03-06T11:56:07;8.90;99.90
5023;DHT22;2530;47.990;7.866;2024-03-06T11:58:33;9.10;99.90
5023;DHT22;2530;47.990;7.866;2024-03-06T12:00:59;9.20;99.90
5023;DHT22;2530;47.990;7.866;2024-03-06T12:03:27;9.50;99.90
5023;DHT22;2530;47.990;7.866;2024-03-06T12:05:52;9.70;99.90
5023;DHT22;2530;47.990;7.866;2024-03-06T12:08:18;9.50;99.90
5023;DHT22;2530;47.990;7.866;2024-03-06T12:10:45;8.80;99.90
5023;DHT22;2530;47.990;7.866;2024-03-06T12:13:11;8.90;99.90
5023;DHT22;2530;47.990;7.866;2024-03-06T12:15:36;8.90;99.90
5023;DHT22;2530;47.990;7.866;2024-03-06T12:18:02;9.20;99.90
5023;DHT22;2530;47.990;7.866;2024-03-06T12:20:28;9.50;99.90
5023;DHT22;2530;47.990;7.866;2024-03-06T12:22:54;10.00;99.90
5023;DHT22;2530;47.990;7.866;2024-03-06T12:25:22;11.10;99.90
5023;DHT22;2530;47.990;7.866;2024-03-06T12:27:48;12.20;99.90
5023;DHT22;2530;47.990;7.866;2024-03-06T12:30:18;11.10;99.90
5023;DHT22;2530;47.990;7.866;2024-03-06T12:33:04;11.00;99.90
5023;DHT22;2530;47.990;7.866;2024-03-06T12:35:30;11.30;99.90
5023;DHT22;2530;47.990;7.866;2024-03-06T12:37:56;11.60;99.90
5023;DHT22;2530;47.990;7.866;2024-03-06T12:40:22;12.30;99.90
5023;DHT22;2530;47.990;7.866;2024-03-06T12:42:48;11.60;99.90
5023;DHT22;2530;47.990;7.866;2024-03-06T12:45:15;11.20;99.90
5023;DHT22;2530;47.990;7.866;2024-03-06T12:47:41;11.60;99.90
5023;DHT22;2530;47.990;7.866;2024-03-06T12:50:08;11.20;99.90
5023;DHT22;2530;47.990;7.866;2024-03-06T12:52:34;10.90;99.90
5023;DHT22;2530;47.990;7.866;2024-03-06T12:55:00;10.90;99.90
5023;DHT22;2530;47.990;7.866;2024-03-06T12:57:26;10.70;99.90
5023;DHT22;2530;47.990;7.866;2024-03-06T12:59:53;10.60;99.90
5023;DHT22;2530;47.990;7.866;2024-03-06T13:02:18;10.60;99.90
5023;DHT22;2530;47.990;7.866;2024-03-06T13:04:44;10.50;99.90
5023;DHT22;2530;47.990;7.866;2024-03-06T13:07:10;10.20;99.90
5023;DHT22;2530;47.990;7.866;2024-03-06T13:09:36;9.80;99.90
5023;DHT22;2530;47.990;7.866;2024-03-06T13:12:01;9.40;99.90
5023;DHT22;2530;47.990;7.866;2024-03-06T13:14:27;9.30;99.90
5023;DHT22;2530;47.990;7.866;2024-03-06T13:16:52;9.40;99.90
5023;DHT22;2530;47.990;7.866;2024-03-06T13:19:18;9.40;99.90
5023;DHT22;2530;47.990;7.866;2024-03-06T13:21:43;9.30;99.90
5023;DHT22;2530;47.990;7.866;2024-03-06T13:24:09;9.00;99.90
5023;DHT22;2530;47.990;7.866;2024-03-06T13:26:34;8.50;99.90
5023;DHT22;2530;47.990;7.866;2024-03-06T13:29:03;8.50;99.90
5023;DHT22;2530;47.990;7.866;2024-03-06T13:31:28;8.70;99.90
5023;DHT22;2530;47.990;7.866;2024-03-06T13:33:54;8.80;99.90
5023;DHT22;2530;47.990;7.866;2024-03-06T13:36:19;10.10;99.90
5023;DHT22;2530;47.990;7.866;2024-03-06T13:38:45;8.90;99.90
5023;DHT22;2530;47.990;7.866;2024-03-06T13:41:11;9.00;99.90
5023;DHT22;2530;47.990;7.866;2024-03-06T13:43:36;9.10;99.90
5023;DHT22;2530;47.990;7.866;2024-03-06T13:46:02;9.20;99.90
5023;DHT22;2530;47.990;7.866;2024-03-06T13:48:28;9.30;99.90
5023;DHT22;2530;47.990;7.866;2024-03-06T13:50:53;9.50;99.90
5023;DHT22;2530;47.990;7.866;2024-03-06T13:53:19;9.60;99.90
5023;DHT22;2530;47.990;7.866;2024-03-06T13:55:44;9.50;99.90
5023;DHT22;2530;47.990;7.866;2024-03-06T13:58:10;9.70;99.90
5023;DHT22;2530;47.990;7.866;2024-03-06T14:00:36;9.50;99.90
5023;DHT22;2530;47.990;7.866;2024-03-06T14:03:01;9.20;99.90
5023;DHT22;2530;47.990;7.866;2024-03-06T14:05:27;9.20;99.90
5023;DHT22;2530;47.990;7.866;2024-03-06T14:07:54;9.20;99.90
5023;DHT22;2530;47.990;7.866;2024-03-06T14:10:20;9.30;99.90
5023;DHT22;2530;47.990;7.866;2024-03-06T14:12:47;9.20;99.90
5023;DHT22;2530;47.990;7.866;2024-03-06T14:15:13;9.20;99.90
5023;DHT22;2530;47.990;7.866;2024-03-06T14:17:39;9.20;99.90
5023;DHT22;2530;47.990;7.866;2024-03-06T14:20:05;9.20;99.90
5023;DHT22;2530;47.990;7.866;2024-03-06T14:22:31;9.10;99.90
5023;DHT22;2530;47.990;7.866;2024-03-06T14:24:57;9.20;99.90
5023;DHT22;2530;47.990;7.866;2024-03-06T14:27:22;8.90;99.90
5023;DHT22;2530;47.990;7.866;2024-03-06T14:29:48;9.00;99.90
5023;DHT22;2530;47.990;7.866;2024-03-06T14:32:15;9.00;99.90
5023;DHT22;2530;47.990;7.866;2024-03-06T14:34:43;9.10;99.90
5023;DHT22;2530;47.990;7.866;2024-03-06T14:37:09;9.00;99.90
5023;DHT22;2530;47.990;7.866;2024-03-06T14:39:35;9.00;99.90
5023;DHT22;2530;47.990;7.866;2024-03-06T14:42:00;9.10;99.90
5023;DHT22;2530;47.990;7.866;2024-03-06T14:44:26;9.10;99.90
5023;DHT22;2530;47.990;7.866;2024-03-06T14:46:51;9.00;99.90
5023;DHT22;2530;47.990;7.866;2024-03-06T14:49:17;8.90;99.90
5023;DHT22;2530;47.990;7.866;2024-03-06T14:51:43;8.80;99.90
5023;DHT22;2530;47.990;7.866;2024-03-06T14:54:08;8.80;99.90
5023;DHT22;2530;47.990;7.866;2024-03-06T14:56:34;8.80;99.90
5023;DHT22;2530;47.990;7.866;2024-03-06T14:59:00;8.70;99.90
5023;DHT22;2530;47.990;7.866;2024-03-06T15:01:25;8.60;99.90
5023;DHT22;2530;47.990;7.866;2024-03-06T15:03:53;8.40;99.90
5023;DHT22;2530;47.990;7.866;2024-03-06T15:06:18;8.50;99.90
5023;DHT22;2530;47.990;7.866;2024-03-06T15:08:44;8.40;99.90
5023;DHT22;2530;47.990;7.866;2024-03-06T15:11:10;8.40;99.90
5023;DHT22;2530;47.990;7.866;2024-03-06T15:13:36;8.20;99.90
5023;DHT22;2530;47.990;7.866;2024-03-06T15:16:01;8.10;99.90
5023;DHT22;2530;47.990;7.866;2024-03-06T15:18:29;8.20;99.90
5023;DHT22;2530;47.990;7.866;2024-03-06T15:20:55;8.30;99.90
5023;DHT22;2530;47.990;7.866;2024-03-06T15:23:20;8.30;99.90
5023;DHT22;2530;47.990;7.866;2024-03-06T15:25:46;8.30;99.90
5023;DHT22;2530;47.990;7.866;2024-03-06T15:28:12;8.20;99.90
5023;DHT22;2530;47.990;7.866;2024-03-06T15:30:37;8.10;99.90
5023;DHT22;2530;47.990;7.866;2024-03-06T15:33:04;8.00;99.90
5023;DHT22;2530;47.990;7.866;2024-03-06T15:35:30;7.90;99.90
5023;DHT22;2530;47.990;7.866;2024-03-06T15:37:56;7.90;99.90
5023;DHT22;2530;47.990;7.866;2024-03-06T15:40:22;7.70;99.90
5023;DHT22;2530;47.990;7.866;2024-03-06T15:42:48;7.70;99.90
5023;DHT22;2530;47.990;7.866;2024-03-06T15:45:13;7.60;99.90
5023;DHT22;2530;47.990;7.866;2024-03-06T15:47:39;7.60;99.90
5023;DHT22;2530;47.990;7.866;2024-03-06T15:50:07;7.50;99.90
5023;DHT22;2530;47.990;7.866;2024-03-06T15:52:35;7.40;99.90
5023;DHT22;2530;47.990;7.866;2024-03-06T15:55:01;7.50;99.90
5023;DHT22;2530;47.990;7.866;2024-03-06T15:57:27;7.40;99.90
5023;DHT22;2530;47.990;7.866;2024-03-06T15:59:52;7.40;99.90
5023;DHT22;2530;47.990;7.866;2024-03-06T16:02:18;7.30;99.90
5023;DHT22;2530;47.990;7.866;2024-03-06T16:04:44;7.40;99.90
5023;DHT22;2530;47.990;7.866;2024-03-06T16:07:09;7.30;99.90
5023;DHT22;2530;47.990;7.866;2024-03-06T16:09:37;7.30;99.90
5023;DHT22;2530;47.990;7.866;2024-03-06T16:12:03;7.30;99.90
5023;DHT22;2530;47.990;7.866;2024-03-06T16:14:29;7.30;99.90
5023;DHT22;2530;47.990;7.866;2024-03-06T16:16:55;7.30;99.90
5023;DHT22;2530;47.990;7.866;2024-03-06T16:19:20;7.30;99.90